Time;durP1;ratioP1;P1;durP2;ratioP2;P2;SDS_P1;SDS_P2;PMS_P1;PMS_P2;Temp;Humidity;BMP_temperature;BMP_pressure;BME280_temperature;BME280_humidity;BME280_pressure;Samples;Min_cycle;Max_cycle;Signal;HPM_P1;HPM_P2
2022/10/26 00:01:25;;;;;;;9.43;4.22;;;12.60;99.90;;;;;;5115832;28;20168;-52
2022/10/26 00:03:53;;;;;;;7.35;3.97;;;12.50;99.90;;;;;;5115860;28;20157;-53
2022/10/26 00:06:20;;;;;;;8.30;5.00;;;12.60;99.90;;;;;;5115641;28;20169;-52
2022/10/26 00:08:48;;;;;;;8.07;3.35;;;12.50;99.90;;;;;;5115539;28;20164;-53
2022/10/26 00:11:14;;;;;;;10.60;3.47;;;12.50;99.90;;;;;;5115531;28;20165;-52
2022/10/26 00:13:40;;;;;;;7.28;3.53;;;12.60;99.90;;;;;;5115483;28;20521;-52
2022/10/26 00:16:10;;;;;;;4.05;2.63;;;12.50;99.90;;;;;;5115755;28;20579;-52
2022/10/26 00:18:36;;;;;;;6.43;3.50;;;12.50;99.90;;;;;;5115450;28;20168;-53
2022/10/26 00:21:03;;;;;;;4.82;2.88;;;12.60;99.90;;;;;;5115538;28;20171;-53
2022/10/26 00:23:28;;;;;;;4.50;3.00;;;12.50;99.90;;;;;;5115519;28;20680;-52
2022/10/26 00:25:55;;;;;;;4.78;3.00;;;12.50;99.90;;;;;;5115364;28;20262;-52
2022/10/26 00:28:21;;;;;;;7.30;2.75;;;12.50;99.90;;;;;;5115631;28;20196;-52
2022/10/26 00:30:46;;;;;;;7.47;3.20;;;12.50;99.90;;;;;;5115178;28;20239;-52
2022/10/26 00:33:12;;;;;;;11.07;3.17;;;12.50;99.90;;;;;;5115416;28;20171;-52
2022/10/26 00:35:38;;;;;;;5.75;2.80;;;12.50;99.90;;;;;;5096916;28;20623;-52
2022/10/26 00:38:03;;;;;;;4.90;3.00;;;12.50;99.90;;;;;;5096852;28;20172;-52
2022/10/26 00:40:29;;;;;;;6.68;3.20;;;12.50;99.90;;;;;;5115079;28;20192;-53
2022/10/26 00:42:55;;;;;;;15.02;2.80;;;12.60;99.90;;;;;;5114963;28;20161;-52
2022/10/26 00:45:29;;;;;;;8.68;2.65;;;12.50;99.90;;;;;;5115366;28;20178;-53
2022/10/26 00:48:01;;;;;;;6.00;2.58;;;12.50;99.90;;;;;;5115059;28;20168;-52
2022/10/26 00:50:32;;;;;;;3.78;3.00;;;12.50;99.90;;;;;;5114891;28;20211;-52
2022/10/26 00:52:59;;;;;;;4.05;2.55;;;12.50;99.90;;;;;;5096443;28;20164;-52
2022/10/26 00:55:30;;;;;;;5.85;2.90;;;12.50;99.90;;;;;;5114769;28;20648;-52
2022/10/26 00:57:56;;;;;;;5.75;3.78;;;12.50;99.90;;;;;;5114672;28;20624;-53
2022/10/26 01:00:23;;;;;;;4.32;2.60;;;12.50;99.90;;;;;;5115173;28;20287;-53
2022/10/26 01:02:51;;;;;;;4.78;2.65;;;12.50;99.90;;;;;;5113864;28;20264;-52
2022/10/26 01:05:18;;;;;;;5.00;2.90;;;12.50;99.90;;;;;;5114632;28;20647;-52
2022/10/26 01:07:44;;;;;;;5.28;2.40;;;12.50;99.90;;;;;;5114445;28;20184;-53
2022/10/26 01:10:10;;;;;;;5.88;2.70;;;12.60;99.90;;;;;;5114297;28;20208;-53
2022/10/26 01:12:36;;;;;;;7.57;3.33;;;12.50;99.90;;;;;;5114338;28;20183;-52
2022/10/26 01:15:02;;;;;;;4.47;2.90;;;12.60;99.90;;;;;;5114376;28;20164;-53
2022/10/26 01:17:47;;;;;;;5.82;2.85;;;12.50;99.90;;;;;;5114178;28;20168;-52
2022/10/26 01:20:31;;;;;;;5.05;2.95;;;12.50;99.90;;;;;;5114287;28;20191;-52
2022/10/26 01:23:10;;;;;;;5.97;2.75;;;12.50;99.90;;;;;;5114144;28;20651;-52
2022/10/26 01:26:09;;;;;;;8.93;2.90;;;12.60;99.90;;;;;;5095820;28;20183;-52
2022/10/26 01:28:59;;;;;;;3.47;2.67;;;12.50;99.90;;;;;;5114140;28;20536;-53
2022/10/26 01:31:31;;;;;;;8.32;2.75;;;12.50;99.90;;;;;;5114046;28;20545;-53
2022/10/26 01:34:11;;;;;;;7.35;2.60;;;12.50;99.90;;;;;;5113962;28;20165;-52
2022/10/26 01:36:45;;;;;;;9.82;3.45;;;12.60;99.90;;;;;;5113961;28;20165;-52
2022/10/26 01:39:19;;;;;;;8.02;2.40;;;12.60;99.90;;;;;;5113900;28;20176;-52
2022/10/26 01:41:48;;;;;;;4.25;2.47;;;12.50;99.90;;;;;;5113845;28;20250;-53
2022/10/26 01:44:25;;;;;;;6.25;2.45;;;12.60;99.90;;;;;;5095471;28;20251;-52
2022/10/26 01:46:54;;;;;;;5.20;2.80;;;12.60;99.90;;;;;;5114044;28;20156;-52
2022/10/26 01:49:23;;;;;;;8.50;2.45;;;12.60;99.90;;;;;;5113974;28;20202;-52
2022/10/26 01:51:49;;;;;;;7.75;2.45;;;12.50;99.90;;;;;;5113939;28;20175;-52
2022/10/26 01:54:15;;;;;;;3.97;2.70;;;12.60;99.90;;;;;;5113863;28;20522;-52
2022/10/26 01:56:46;;;;;;;4.18;2.15;;;12.60;99.90;;;;;;5113624;28;20172;-52
2022/10/26 01:59:33;;;;;;;6.50;2.60;;;12.50;99.90;;;;;;5113303;28;20227;-52
2022/10/26 02:02:33;;;;;;;4.72;2.25;;;12.60;99.90;;;;;;5113715;28;20177;-52
2022/10/26 02:05:26;;;;;;;4.65;2.05;;;12.50;99.90;;;;;;5113347;28;20165;-52
2022/10/26 02:08:03;;;;;;;4.78;2.30;;;12.60;99.90;;;;;;5113750;28;20165;-52
2022/10/26 02:10:53;;;;;;;5.40;2.13;;;12.60;99.90;;;;;;5113289;28;20694;-52
2022/10/26 02:13:30;;;;;;;7.45;2.70;;;12.60;99.90;;;;;;5113306;28;20172;-52
2022/10/26 02:16:14;;;;;;;4.88;2.20;;;12.60;99.90;;;;;;5113122;28;20175;-52
2022/10/26 02:19:01;;;;;;;8.45;2.47;;;12.50;99.90;;;;;;5113432;28;20164;-52
2022/10/26 02:21:39;;;;;;;5.25;2.35;;;12.60;99.90;;;;;;5112539;28;20286;-52
2022/10/26 02:24:09;;;;;;;4.82;2.20;;;12.50;99.90;;;;;;5112964;28;20160;-52
2022/10/26 02:26:38;;;;;;;6.80;2.03;;;12.60;99.90;;;;;;5112941;28;20161;-52
2022/10/26 02:29:08;;;;;;;6.05;2.55;;;12.60;99.90;;;;;;5112799;28;20500;-52
2022/10/26 02:31:36;;;;;;;4.72;2.75;;;12.60;99.90;;;;;;5112840;28;20161;-52
2022/10/26 02:34:05;;;;;;;15.18;5.07;;;12.60;99.90;;;;;;5112813;28;20153;-52
2022/10/26 02:36:35;;;;;;;7.95;2.40;;;12.70;99.90;;;;;;5112757;28;20172;-52
2022/10/26 02:39:03;;;;;;;5.93;2.63;;;12.60;99.90;;;;;;5112678;28;20172;-52
2022/10/26 02:41:31;;;;;;;4.93;2.42;;;12.60;99.90;;;;;;5112860;28;20186;-52
2022/10/26 02:44:03;;;;;;;5.80;2.65;;;12.60;99.90;;;;;;5112532;28;20165;-52
2022/10/26 02:46:28;;;;;;;5.53;2.22;;;12.60;99.90;;;;;;5095145;28;20559;-52
2022/10/26 02:48:55;;;;;;;4.05;2.17;;;12.70;99.90;;;;;;5112412;28;20168;-52
2022/10/26 02:51:59;;;;;;;4.35;2.38;;;12.60;99.90;;;;;;5112923;28;20164;-52
2022/10/26 02:54:32;;;;;;;3.45;2.30;;;12.70;99.90;;;;;;5111863;28;20635;-52
2022/10/26 02:57:07;;;;;;;6.00;2.15;;;12.70;99.90;;;;;;5112338;28;20180;-52
2022/10/26 02:59:36;;;;;;;5.57;2.42;;;12.70;99.90;;;;;;5112267;28;20212;-52
2022/10/26 03:02:03;;;;;;;2.72;2.30;;;12.70;99.90;;;;;;5112397;28;20659;-52
2022/10/26 03:04:31;;;;;;;2.30;2.10;;;12.60;99.90;;;;;;5112254;28;20177;-52
2022/10/26 03:06:57;;;;;;;10.32;2.70;;;12.70;99.90;;;;;;5112315;28;20515;-52
2022/10/26 03:09:23;;;;;;;9.57;2.53;;;12.70;99.90;;;;;;5112826;28;20196;-52
2022/10/26 03:11:48;;;;;;;7.90;2.45;;;12.70;99.90;;;;;;5112571;28;20552;-52
2022/10/26 03:14:14;;;;;;;4.97;2.35;;;12.70;99.90;;;;;;5112254;28;20165;-52
2022/10/26 03:16:39;;;;;;;9.52;2.40;;;12.70;99.90;;;;;;5112180;28;20243;-52
2022/10/26 03:19:05;;;;;;;3.70;2.20;;;12.70;99.90;;;;;;5112145;28;20167;-52
2022/10/26 03:21:30;;;;;;;5.70;2.35;;;12.70;99.90;;;;;;5112037;28;20243;-53
2022/10/26 03:23:56;;;;;;;6.50;3.60;;;12.80;99.90;;;;;;5112057;28;20179;-52
2022/10/26 03:26:22;;;;;;;12.27;4.53;;;12.80;99.90;;;;;;5111855;28;20164;-52
2022/10/26 03:28:48;;;;;;;6.45;3.65;;;12.80;99.90;;;;;;5112103;28;20695;-52
2022/10/26 03:31:13;;;;;;;4.07;2.75;;;12.80;99.90;;;;;;5112276;28;20199;-52
2022/10/26 03:33:39;;;;;;;3.38;2.30;;;12.80;99.90;;;;;;5112020;28;20529;-52
2022/10/26 03:36:05;;;;;;;5.90;2.45;;;12.80;99.90;;;;;;5112247;28;20173;-52
2022/10/26 03:38:30;;;;;;;13.30;3.25;;;12.80;99.90;;;;;;5112196;28;20516;-52
2022/10/26 03:40:56;;;;;;;3.10;2.40;;;12.80;99.90;;;;;;5111894;28;20165;-53
2022/10/26 03:43:21;;;;;;;11.48;2.90;;;12.80;99.90;;;;;;5112335;28;20188;-52
2022/10/26 03:45:47;;;;;;;5.55;2.53;;;12.90;99.90;;;;;;5111922;28;20171;-53
2022/10/26 03:48:13;;;;;;;3.55;2.10;;;12.80;99.90;;;;;;5111779;28;20176;-52
2022/10/26 03:50:38;;;;;;;7.05;2.90;;;12.80;99.90;;;;;;5111768;28;20261;-52
2022/10/26 03:53:04;;;;;;;6.15;2.40;;;12.90;99.90;;;;;;5111778;28;20210;-52
2022/10/26 03:55:29;;;;;;;9.07;2.42;;;12.80;99.90;;;;;;5111822;28;20684;-52
2022/10/26 03:57:55;;;;;;;5.10;2.50;;;12.90;99.90;;;;;;5111576;28;20643;-52
2022/10/26 04:00:21;;;;;;;4.05;2.00;;;12.90;99.90;;;;;;5112190;28;20172;-52
2022/10/26 04:02:57;;;;;;;9.75;2.40;;;12.90;99.90;;;;;;5111719;28;20161;-52
2022/10/26 04:05:24;;;;;;;7.13;2.58;;;12.90;99.90;;;;;;5111692;28;20161;-52
2022/10/26 04:07:54;;;;;;;5.68;2.70;;;12.90;99.90;;;;;;5112029;28;20190;-52
2022/10/26 04:10:19;;;;;;;5.55;2.58;;;12.90;99.90;;;;;;5111923;28;20219;-52
2022/10/26 04:12:45;;;;;;;9.90;2.83;;;12.90;99.90;;;;;;5093294;28;20165;-52
2022/10/26 04:15:10;;;;;;;5.78;2.80;;;13.00;99.90;;;;;;5111603;28;20176;-52
2022/10/26 04:17:36;;;;;;;5.05;2.40;;;13.00;99.90;;;;;;5111594;28;20249;-52
2022/10/26 04:20:02;;;;;;;8.75;3.17;;;13.00;99.90;;;;;;5111656;28;20165;-52
2022/10/26 04:22:27;;;;;;;6.47;2.97;;;13.00;99.90;;;;;;5111015;28;20620;-52
2022/10/26 04:24:53;;;;;;;12.93;3.53;;;13.00;99.90;;;;;;5111179;28;20169;-52
2022/10/26 04:27:18;;;;;;;6.90;3.63;;;13.00;99.90;;;;;;5111741;28;20160;-52
2022/10/26 04:29:44;;;;;;;8.00;3.38;;;13.00;99.90;;;;;;5111399;28;20313;-52
2022/10/26 04:32:09;;;;;;;10.52;3.70;;;13.00;99.90;;;;;;5111373;28;20193;-53
2022/10/26 04:34:35;;;;;;;5.93;3.28;;;13.00;99.90;;;;;;5110995;28;20165;-52
2022/10/26 04:37:01;;;;;;;9.10;3.72;;;13.00;99.90;;;;;;5093257;28;20169;-52
2022/10/26 04:39:26;;;;;;;9.50;3.30;;;13.00;99.90;;;;;;5115062;28;20192;-52
2022/10/26 04:41:53;;;;;;;7.07;3.75;;;13.00;99.90;;;;;;5115665;28;20172;-52
2022/10/26 04:44:18;;;;;;;9.95;3.70;;;13.00;99.90;;;;;;5115348;28;20192;-52
2022/10/26 04:46:44;;;;;;;6.60;2.92;;;13.10;99.90;;;;;;5114847;28;20238;-52
2022/10/26 04:49:10;;;;;;;10.23;3.65;;;13.10;99.90;;;;;;5114747;28;20168;-52
2022/10/26 04:51:35;;;;;;;11.40;3.33;;;13.10;99.90;;;;;;5114860;28;20173;-52
2022/10/26 04:54:02;;;;;;;7.53;3.70;;;13.10;99.90;;;;;;5114791;28;20168;-52
2022/10/26 04:56:28;;;;;;;5.32;3.22;;;13.10;99.90;;;;;;5114933;28;20543;-52
2022/10/26 04:58:54;;;;;;;9.00;3.80;;;13.10;99.90;;;;;;5114132;28;20219;-51
2022/10/26 05:01:20;;;;;;;8.48;3.90;;;13.10;99.90;;;;;;5114537;28;20637;-52
2022/10/26 05:03:49;;;;;;;13.23;4.25;;;13.10;99.90;;;;;;5114726;28;20175;-52
2022/10/26 05:06:15;;;;;;;8.23;3.83;;;13.20;99.90;;;;;;5114492;28;20164;-52
2022/10/26 05:08:40;;;;;;;9.43;4.68;;;13.10;99.90;;;;;;5114053;28;20163;-52
2022/10/26 05:11:06;;;;;;;26.42;10.35;;;13.20;99.90;;;;;;5113816;28;20597;-52
2022/10/26 05:13:31;;;;;;;20.55;7.40;;;13.10;99.90;;;;;;5113922;28;20628;-52
2022/10/26 05:15:57;;;;;;;11.93;4.88;;;13.20;99.90;;;;;;5114405;28;20221;-52
2022/10/26 05:18:22;;;;;;;20.95;9.57;;;13.20;99.90;;;;;;5114598;28;20230;-52
2022/10/26 05:20:51;;;;;;;15.40;7.32;;;13.20;99.90;;;;;;5114796;28;20168;-53
2022/10/26 05:23:17;;;;;;;23.52;9.18;;;13.20;99.90;;;;;;5114268;28;20222;-52
2022/10/26 05:25:44;;;;;;;24.15;10.68;;;13.20;99.90;;;;;;5113755;28;20239;-53
2022/10/26 05:28:12;;;;;;;18.35;7.90;;;13.20;99.90;;;;;;5113579;28;20197;-52
2022/10/26 05:30:38;;;;;;;18.05;8.52;;;13.20;99.90;;;;;;5113447;28;20222;-53
2022/10/26 05:33:06;;;;;;;38.22;15.73;;;13.20;99.90;;;;;;5113919;28;20160;-53
2022/10/26 05:35:32;;;;;;;23.70;11.32;;;13.20;99.90;;;;;;5114162;28;20259;-52
2022/10/26 05:37:58;;;;;;;10.45;5.50;;;13.20;99.90;;;;;;5113906;28;20628;-53
2022/10/26 05:40:24;;;;;;;12.35;6.32;;;13.30;99.90;;;;;;5113583;28;20626;-52
2022/10/26 05:42:50;;;;;;;13.30;7.78;;;13.20;99.90;;;;;;5114199;28;20160;-52
2022/10/26 05:45:19;;;;;;;12.35;6.80;;;13.20;99.90;;;;;;5113651;28;20176;-53
2022/10/26 05:47:44;;;;;;;8.18;4.00;;;13.30;99.90;;;;;;5113467;28;20214;-52
2022/10/26 05:50:11;;;;;;;22.38;11.20;;;13.20;99.90;;;;;;5113465;28;20208;-52
2022/10/26 05:52:44;;;;;;;41.58;17.92;;;13.30;99.90;;;;;;5113837;28;20539;-52
2022/10/26 05:55:13;;;;;;;21.92;9.57;;;13.30;99.90;;;;;;5113430;28;20175;-52
2022/10/26 05:57:39;;;;;;;12.55;5.82;;;13.30;99.90;;;;;;5113543;28;20164;-52
2022/10/26 06:00:10;;;;;;;25.27;12.02;;;13.40;99.90;;;;;;5113713;28;20202;-52
2022/10/26 06:03:09;;;;;;;13.38;5.03;;;13.40;99.90;;;;;;5113471;28;20161;-52
2022/10/26 06:05:54;;;;;;;4.55;2.70;;;13.40;99.90;;;;;;5113399;28;20173;-51
2022/10/26 06:08:21;;;;;;;15.40;7.72;;;13.40;99.90;;;;;;5113570;28;20160;-52
2022/10/26 06:10:47;;;;;;;6.65;4.22;;;13.40;99.90;;;;;;5113238;28;20563;-52
2022/10/26 06:13:13;;;;;;;2.00;1.60;;;13.50;99.90;;;;;;5113075;28;20165;-52
2022/10/26 06:16:28;;;;;;;5.10;2.85;;;13.70;99.90;;;;;;5113061;28;20172;-52
2022/10/26 06:19:26;;;;;;;6.68;3.40;;;13.90;99.90;;;;;;5077394;28;20640;-52
2022/10/26 06:22:28;;;;;;;1.45;1.15;;;13.90;99.90;;;;;;5068228;28;20180;-52
2022/10/26 06:25:09;;;;;;;3.25;1.90;;;14.00;99.90;;;;;;5113045;28;20172;-52
2022/10/26 06:27:46;;;;;;;5.90;2.35;;;14.20;99.90;;;;;;5113209;28;20164;-52
2022/10/26 06:30:12;;;;;;;11.90;5.03;;;14.20;99.90;;;;;;5112751;28;20202;-52
2022/10/26 06:32:39;;;;;;;5.65;2.10;;;14.20;99.90;;;;;;5112813;28;20255;-52
2022/10/26 06:35:19;;;;;;;4.72;2.10;;;14.20;99.90;;;;;;5112743;28;20671;-52
2022/10/26 06:37:45;;;;;;;3.40;1.77;;;14.20;99.90;;;;;;5113029;28;20172;-52
2022/10/26 06:40:13;;;;;;;2.50;1.48;;;14.30;99.90;;;;;;5112617;28;20644;-52
2022/10/26 06:42:39;;;;;;;7.30;1.63;;;14.20;99.90;;;;;;5112610;28;20173;-52
2022/10/26 06:45:05;;;;;;;4.38;2.65;;;14.20;99.90;;;;;;5112647;28;20635;-52
2022/10/26 06:47:42;;;;;;;5.47;2.50;;;14.30;99.90;;;;;;5112688;28;20157;-52
2022/10/26 06:50:21;;;;;;;3.03;1.63;;;14.20;99.90;;;;;;5112453;28;20252;-52
2022/10/26 06:52:59;;;;;;;6.68;1.30;;;14.30;99.90;;;;;;5112546;28;20164;-52
2022/10/26 06:55:26;;;;;;;4.95;2.00;;;14.30;99.90;;;;;;5112325;28;20247;-52
2022/10/26 06:57:52;;;;;;;15.45;8.55;;;14.30;99.90;;;;;;5112627;28;20252;-52
2022/10/26 07:00:24;;;;;;;4.40;3.17;;;14.20;99.90;;;;;;5111974;28;20173;-52
2022/10/26 07:02:50;;;;;;;7.05;5.32;;;14.30;99.90;;;;;;5112594;28;20531;-52
2022/10/26 07:05:15;;;;;;;6.03;3.70;;;14.30;99.90;;;;;;5112514;28;20527;-52
2022/10/26 07:07:43;;;;;;;8.63;3.83;;;14.30;99.90;;;;;;5112454;28;20165;-52
2022/10/26 07:10:10;;;;;;;3.50;2.83;;;14.40;99.90;;;;;;5112166;28;20228;-52
2022/10/26 07:12:36;;;;;;;6.82;4.70;;;14.30;99.90;;;;;;5112101;28;20165;-52
2022/10/26 07:15:03;;;;;;;4.55;3.25;;;14.30;99.90;;;;;;5111798;28;20191;-52
2022/10/26 07:17:29;;;;;;;3.75;1.90;;;14.40;99.90;;;;;;5111386;28;20640;-51
2022/10/26 07:19:55;;;;;;;9.38;4.35;;;14.40;99.90;;;;;;5112276;28;20187;-51
2022/10/26 07:22:21;;;;;;;6.40;2.65;;;14.30;99.90;;;;;;5111919;28;20528;-52
2022/10/26 07:24:50;;;;;;;9.50;3.42;;;14.40;99.90;;;;;;5112007;28;20169;-50
2022/10/26 07:27:18;;;;;;;6.28;3.25;;;14.40;99.90;;;;;;5112027;28;20175;-53
2022/10/26 07:29:44;;;;;;;10.73;5.30;;;14.40;99.90;;;;;;5112140;28;20200;-51
2022/10/26 07:32:09;;;;;;;7.78;3.00;;;14.40;99.90;;;;;;5111711;28;20173;-52
2022/10/26 07:34:35;;;;;;;4.22;3.08;;;14.30;99.90;;;;;;5111821;28;20168;-52
2022/10/26 07:37:01;;;;;;;7.32;3.80;;;14.40;99.90;;;;;;5111723;28;20169;-53
2022/10/26 07:39:26;;;;;;;7.30;3.15;;;14.40;99.90;;;;;;5111435;28;20180;-52
2022/10/26 07:41:52;;;;;;;8.10;3.65;;;14.30;99.90;;;;;;5111270;28;20165;-51
2022/10/26 07:44:18;;;;;;;12.07;4.18;;;14.30;99.90;;;;;;5111326;28;20207;-51
2022/10/26 07:46:43;;;;;;;8.45;4.40;;;14.50;99.90;;;;;;5110831;28;20169;-49
2022/10/26 07:49:09;;;;;;;16.30;8.93;;;14.60;99.90;;;;;;5111644;28;20169;-51
2022/10/26 07:51:35;;;;;;;4.10;2.88;;;14.70;99.90;;;;;;5111692;28;20172;-47
2022/10/26 07:54:01;;;;;;;10.98;4.00;;;14.80;99.90;;;;;;5112050;28;20168;-51
2022/10/26 07:56:27;;;;;;;9.52;3.55;;;14.90;99.90;;;;;;5111820;28;20187;-51
2022/10/26 07:58:53;;;;;;;6.03;4.10;;;15.00;99.90;;;;;;5111611;28;20700;-49
2022/10/26 08:01:19;;;;;;;9.38;3.47;;;15.10;99.90;;;;;;5112024;28;20160;-51
2022/10/26 08:03:44;;;;;;;5.68;3.05;;;15.10;99.90;;;;;;5111528;28;20169;-50
2022/10/26 08:06:11;;;;;;;5.35;2.45;;;15.20;99.90;;;;;;5111530;28;20276;-50
2022/10/26 08:08:36;;;;;;;6.05;2.40;;;15.30;99.90;;;;;;5111487;28;20214;-50
2022/10/26 08:11:03;;;;;;;5.18;2.47;;;15.20;99.90;;;;;;5111829;28;20205;-51
2022/10/26 08:13:28;;;;;;;8.63;2.58;;;15.40;99.90;;;;;;5115451;28;20176;-52
2022/10/26 08:15:58;;;;;;;6.45;2.70;;;15.40;99.90;;;;;;5115453;28;20169;-54
2022/10/26 08:18:24;;;;;;;7.00;2.95;;;15.50;99.90;;;;;;5115762;28;20165;-55
2022/10/26 08:20:50;;;;;;;8.55;2.92;;;15.60;99.90;;;;;;5115756;28;20176;-55
2022/10/26 08:23:15;;;;;;;5.07;2.92;;;15.60;99.90;;;;;;5115166;28;20161;-52
2022/10/26 08:25:41;;;;;;;8.43;2.92;;;15.70;99.90;;;;;;5115374;28;20199;-50
2022/10/26 08:28:06;;;;;;;4.30;2.72;;;15.80;99.90;;;;;;5115652;28;20165;-52
2022/10/26 08:30:32;;;;;;;4.82;2.90;;;15.60;99.90;;;;;;5115204;28;20297;-50
2022/10/26 08:33:03;;;;;;;9.77;2.80;;;15.50;99.90;;;;;;5115144;28;20175;-50
2022/10/26 08:35:29;;;;;;;6.25;2.85;;;15.60;99.90;;;;;;5114784;28;20656;-50
2022/10/26 08:37:55;;;;;;;6.78;3.28;;;15.60;99.90;;;;;;5115151;28;20256;-50
2022/10/26 08:40:25;;;;;;;4.78;2.78;;;15.50;99.90;;;;;;5115545;28;20196;-50
2022/10/26 08:42:56;;;;;;;5.53;2.60;;;15.60;99.90;;;;;;5115236;28;20164;-50
2022/10/26 08:45:22;;;;;;;9.55;3.60;;;15.50;99.90;;;;;;5096717;28;20216;-50
2022/10/26 08:47:54;;;;;;;7.10;2.70;;;15.40;99.90;;;;;;5115392;28;20247;-51
2022/10/26 08:50:34;;;;;;;4.70;2.75;;;15.40;99.90;;;;;;5115112;28;20208;-51
2022/10/26 08:53:25;;;;;;;9.27;3.00;;;15.20;99.90;;;;;;5114486;28;20196;-51
2022/10/26 08:56:02;;;;;;;4.10;2.50;;;15.20;99.90;;;;;;5114699;28;20164;-51
2022/10/26 08:58:32;;;;;;;7.78;2.50;;;15.20;99.90;;;;;;5114169;28;20239;-51
2022/10/26 09:00:58;;;;;;;4.13;2.47;;;15.20;99.90;;;;;;5114297;28;20286;-51
2022/10/26 09:03:24;;;;;;;5.72;2.67;;;15.30;99.90;;;;;;5114774;28;20196;-50
2022/10/26 09:06:00;;;;;;;5.70;2.40;;;15.40;99.90;;;;;;5096637;28;20181;-50
2022/10/26 09:08:51;;;;;;;7.90;2.78;;;15.70;99.90;;;;;;5114429;28;20503;-51
2022/10/26 09:11:43;;;;;;;6.22;2.70;;;16.00;99.90;;;;;;5114540;28;20282;-50
2022/10/26 09:14:14;;;;;;;5.82;2.45;;;16.20;99.90;;;;;;5113821;28;20208;-51
2022/10/26 09:16:56;;;;;;;5.30;2.17;;;16.50;99.90;;;;;;5114395;28;20179;-51
2022/10/26 09:19:46;;;;;;;5.57;2.80;;;16.60;99.90;;;;;;5114201;28;20679;-56
2022/10/26 09:22:32;;;;;;;5.13;1.90;;;16.80;99.90;;;;;;5114177;28;20210;-56
2022/10/26 09:25:23;;;;;;;6.07;1.98;;;16.90;99.90;;;;;;5113704;28;20200;-57
2022/10/26 09:27:55;;;;;;;5.22;1.88;;;17.00;99.90;;;;;;5114163;28;20233;-54
2022/10/26 09:30:21;;;;;;;5.18;2.30;;;17.00;99.90;;;;;;5114415;28;20193;-56
2022/10/26 09:32:49;;;;;;;4.28;2.05;;;17.10;99.90;;;;;;5113728;28;20168;-53
2022/10/26 09:35:21;;;;;;;4.28;1.95;;;17.30;99.90;;;;;;5113855;28;20243;-55
2022/10/26 09:37:51;;;;;;;3.78;1.77;;;17.30;99.90;;;;;;5113669;28;20167;-52
2022/10/26 09:40:26;;;;;;;7.63;2.70;;;17.40;99.90;;;;;;5113742;28;20221;-52
2022/10/26 09:43:09;;;;;;;7.25;2.35;;;17.50;99.90;;;;;;5113502;28;20160;-52
2022/10/26 09:45:38;;;;;;;7.03;2.08;;;17.50;99.90;;;;;;5113420;28;20180;-54
2022/10/26 09:48:20;;;;;;;5.55;2.38;;;17.70;99.90;;;;;;5113188;28;20179;-49
2022/10/26 09:50:48;;;;;;;11.63;3.10;;;17.70;99.90;;;;;;5113550;28;20690;-56
2022/10/26 09:53:14;;;;;;;5.38;2.70;;;17.90;99.90;;;;;;5113436;28;20499;-53
2022/10/26 09:55:43;;;;;;;5.30;3.10;;;18.00;99.90;;;;;;5113349;28;20199;-54
2022/10/26 09:58:30;;;;;;;8.27;4.35;;;18.10;99.90;;;;;;5113254;28;20694;-52
2022/10/26 10:00:56;;;;;;;8.27;3.75;;;18.10;99.90;;;;;;5113245;28;20176;-53
2022/10/26 10:03:27;;;;;;;6.57;2.60;;;18.20;99.90;;;;;;5113374;28;20168;-55
2022/10/26 10:06:14;;;;;;;9.52;3.58;;;18.30;99.90;;;;;;5112980;28;20172;-55
2022/10/26 10:08:40;;;;;;;8.93;3.75;;;18.40;99.90;;;;;;5113127;28;20196;-52
2022/10/26 10:11:11;;;;;;;6.95;3.42;;;18.30;99.90;;;;;;5112915;28;20236;-55
2022/10/26 10:13:46;;;;;;;4.78;2.22;;;18.40;99.90;;;;;;5113301;28;20222;-53
2022/10/26 10:16:20;;;;;;;5.80;2.40;;;18.50;99.90;;;;;;5113212;28;20180;-55
2022/10/26 10:18:53;;;;;;;5.05;2.15;;;18.60;99.90;;;;;;5112893;28;20161;-53
2022/10/26 10:21:19;;;;;;;10.38;2.53;;;18.60;99.90;;;;;;5113492;28;20192;-52
2022/10/26 10:23:51;;;;;;;5.50;2.35;;;18.70;99.90;;;;;;5112421;28;20200;-51
2022/10/26 10:26:17;;;;;;;4.40;2.08;;;18.70;99.90;;;;;;5112454;28;20179;-52
2022/10/26 10:28:58;;;;;;;3.72;2.28;;;18.90;99.90;;;;;;5112219;28;20560;-50
2022/10/26 10:31:29;;;;;;;7.78;2.20;;;18.90;99.90;;;;;;5094068;28;20204;-50
2022/10/26 10:33:55;;;;;;;5.22;2.30;;;18.90;99.90;;;;;;5112602;28;20168;-50
2022/10/26 10:36:24;;;;;;;4.70;1.73;;;19.00;99.90;;;;;;5094795;28;20198;-52
2022/10/26 10:38:52;;;;;;;5.45;2.60;;;19.10;99.90;;;;;;5112948;28;20169;-49
2022/10/26 10:41:31;;;;;;;5.00;2.30;;;19.20;99.90;;;;;;5112929;28;20179;-50
2022/10/26 10:44:22;;;;;;;7.60;2.60;;;19.40;99.90;;;;;;5112437;28;20620;-50
2022/10/26 10:46:48;;;;;;;5.10;2.10;;;19.40;99.90;;;;;;5112645;28;20161;-50
2022/10/26 10:49:22;;;;;;;3.70;2.00;;;19.40;99.90;;;;;;5112469;28;20172;-52
2022/10/26 10:51:48;;;;;;;4.85;2.13;;;19.50;99.90;;;;;;5112734;28;20172;-51
2022/10/26 10:54:35;;;;;;;2.92;1.80;;;19.60;99.90;;;;;;5112336;28;20628;-50
2022/10/26 10:57:16;;;;;;;6.18;2.28;;;19.60;99.90;;;;;;5112428;28;20247;-50
2022/10/26 10:59:55;;;;;;;3.63;1.90;;;19.60;99.90;;;;;;5112178;28;20212;-50
2022/10/26 11:02:47;;;;;;;4.35;1.63;;;19.80;99.90;;;;;;5112556;28;20560;-50
2022/10/26 11:05:31;;;;;;;3.30;1.33;;;19.70;99.90;;;;;;5111699;28;20168;-50
2022/10/26 11:08:01;;;;;;;3.05;1.90;;;19.80;99.90;;;;;;5112285;28;20160;-51
2022/10/26 11:10:32;;;;;;;5.15;1.58;;;20.00;99.90;;;;;;5112421;28;20215;-52
2022/10/26 11:13:15;;;;;;;3.70;1.83;;;20.10;99.90;;;;;;5111957;28;20625;-50
2022/10/26 11:15:43;;;;;;;1.48;1.35;;;20.10;99.90;;;;;;5111302;28;20168;-50
2022/10/26 11:18:18;;;;;;;2.15;1.58;;;20.20;99.90;;;;;;5111980;28;20226;-51
2022/10/26 11:20:56;;;;;;;1.48;1.20;;;20.10;99.90;;;;;;5111519;28;20711;-50
2022/10/26 11:23:31;;;;;;;1.52;1.30;;;20.20;99.90;;;;;;5112079;28;20161;-52
2022/10/26 11:26:03;;;;;;;3.70;1.40;;;20.20;99.90;;;;;;5111260;28;20168;-52
2022/10/26 11:29:00;;;;;;;1.30;1.20;;;20.30;99.90;;;;;;5112052;28;20172;-49
2022/10/26 11:31:32;;;;;;;2.20;1.58;;;20.20;99.90;;;;;;5110437;28;20223;-55
2022/10/26 11:34:10;;;;;;;1.67;1.20;;;20.30;99.90;;;;;;5111081;28;20240;-53
2022/10/26 11:36:38;;;;;;;7.53;1.60;;;20.30;99.90;;;;;;5111244;28;20627;-55
2022/10/26 11:39:35;;;;;;;3.30;1.40;;;20.30;99.90;;;;;;5110669;28;20211;-54
2022/10/26 11:42:10;;;;;;;1.95;1.08;;;20.40;99.90;;;;;;5111110;28;20191;-53
2022/10/26 11:44:42;;;;;;;1.20;1.10;;;20.40;99.90;;;;;;5111005;28;20434;-52
2022/10/26 11:47:37;;;;;;;9.05;1.88;;;20.30;99.90;;;;;;5113935;28;20514;-51
2022/10/26 11:50:14;;;;;;;4.28;1.73;;;20.30;99.90;;;;;;5115928;28;20216;-50
2022/10/26 11:53:04;;;;;;;3.35;1.30;;;20.40;99.90;;;;;;5115750;28;20661;-54
2022/10/26 11:55:31;;;;;;;2.53;1.40;;;20.30;99.90;;;;;;5109142;28;20172;-51
2022/10/26 11:57:57;;;;;;;1.52;1.25;;;20.40;99.90;;;;;;5077116;28;20204;-51
2022/10/26 12:00:23;;;;;;;3.25;1.48;;;20.50;99.90;;;;;;5095468;28;20261;-49
2022/10/26 12:03:07;;;;;;;2.55;1.20;;;20.50;99.90;;;;;;5077351;28;20256;-51
2022/10/26 12:05:33;;;;;;;5.80;1.45;;;20.40;99.90;;;;;;5094795;28;20655;-52
2022/10/26 12:08:04;;;;;;;2.40;0.98;;;20.40;99.90;;;;;;5094158;28;20177;-54
2022/10/26 12:10:33;;;;;;;1.77;1.45;;;20.50;99.90;;;;;;5094381;28;20232;-55
2022/10/26 12:13:30;;;;;;;2.83;1.30;;;20.50;99.90;;;;;;5094368;28;20161;-55
2022/10/26 12:16:08;;;;;;;1.75;1.27;;;20.50;99.90;;;;;;5094147;28;20605;-55
2022/10/26 12:18:42;;;;;;;1.52;1.42;;;20.50;99.90;;;;;;5094620;28;20237;-54
2022/10/26 12:21:10;;;;;;;1.70;1.40;;;20.50;99.90;;;;;;5095184;28;20175;-55
2022/10/26 12:23:38;;;;;;;7.43;2.05;;;20.50;99.90;;;;;;5094293;28;20161;-55
2022/10/26 12:26:21;;;;;;;3.80;1.60;;;20.40;99.90;;;;;;5094537;28;20287;-51
2022/10/26 12:28:47;;;;;;;7.20;1.85;;;20.40;99.90;;;;;;5094271;28;20161;-55
2022/10/26 12:31:31;;;;;;;5.15;1.60;;;20.40;99.90;;;;;;5094634;28;20703;-54
2022/10/26 12:33:58;;;;;;;3.25;1.60;;;20.50;99.90;;;;;;5094400;28;20161;-55
2022/10/26 12:36:47;;;;;;;2.53;1.60;;;20.50;99.90;;;;;;5094370;28;20202;-50
2022/10/26 12:39:32;;;;;;;1.98;1.60;;;20.60;99.90;;;;;;5094463;28;20189;-54
2022/10/26 12:42:09;;;;;;;2.22;1.58;;;20.60;99.90;;;;;;5075790;28;20172;-52
2022/10/26 12:44:44;;;;;;;2.45;1.50;;;20.60;99.90;;;;;;5094226;28;20195;-54
2022/10/26 12:47:29;;;;;;;2.80;1.60;;;20.50;99.90;;;;;;5076076;28;20177;-55
2022/10/26 12:50:07;;;;;;;2.08;1.60;;;20.50;99.90;;;;;;5094027;28;20200;-55
2022/10/26 12:52:41;;;;;;;2.75;1.40;;;20.60;99.90;;;;;;5094174;28;20169;-54
2022/10/26 12:55:41;;;;;;;3.80;1.63;;;20.50;99.90;;;;;;5094349;28;20177;-53
2022/10/26 12:58:31;;;;;;;2.15;1.65;;;20.50;99.90;;;;;;5092780;28;20224;-54
2022/10/26 13:00:57;;;;;;;5.00;1.60;;;20.50;99.90;;;;;;5094394;28;20269;-55
2022/10/26 13:03:45;;;;;;;1.95;1.58;;;20.50;99.90;;;;;;5094053;28;20299;-53
2022/10/26 13:06:49;;;;;;;2.15;1.77;;;20.50;99.90;;;;;;5093871;28;20699;-54
2022/10/26 13:09:26;;;;;;;2.55;1.70;;;20.40;99.90;;;;;;5093962;28;20551;-52